Minneapolis, MN

06:39 CDT le 02 septembre 2014 (GMT -0500)
Minneapolis-Saint Paul International | Change Station
CLOSE
Current Station
Aéroport
Location: Minneapolis,
Altitude: 837 ft
Stations météo à proximité

Alt. 837 ft 44.89 °N, 93.23 °W | Updated 46 minutes ago

Mostly Cloudy
Nuageux
63 ° F
Paraît 63 ° F
N
5
Vent Variable Vent de SO

Aujourd'hui
Haut(e) -- | Bas -- ° F
--% Risque de précip.
Hier
Haut(e) -- | Bas -- ° F
Precip. -- pouce
6:36 AM 7:48 PM
Lune montante, 50% visible
Pression 29.84 pouce
Visibilité 10.0 Miles terrestres
Nuages Nuages épars 7000 ft
Nuageux 18000 ft
Point de rosée 59 ° F
Humidité 87%
Précipitations 0.00 pouce
Profondeur de la couche neigeuse Non disponible.
UV 0 sur 12
Pollen 9.40 sur 12
Ozone Bon
PM2.5 Bon
Flu Activity Non disponible.
METAR KMSP 021053Z 22004KT 10SM SCT070 BKN180 17/15 A2985 RMK AO2 SLP105 T01720150

More Conditions Fewer Conditions

Pression 29.84 pouce
Visibilité 10.0 Miles terrestres
Nuages Nuages épars 7000 ft
Nuageux 18000 ft
Point de rosée 59 ° F
Humidité 87%
Précipitations 0.00 pouce
Profondeur de la couche neigeuse Non disponible.
UV 0 sur 12
Pollen 9.40 sur 12
Ozone Bon
PM2.5 Bon
Flu Activity Non disponible.
METAR KMSP 021053Z 22004KT 10SM SCT070 BKN180 17/15 A2985 RMK AO2 SLP105 T01720150

More Conditions Fewer Conditions

10-Day Weather Forecast

Almanac

Astronomie

Sep. 02, 2014 Lever Coucher
Temps réel 06:36 CDT 19:48 CDT
Crépuscule civil 06:06 CDT 20:18 CDT
Crépuscule nautique 05:29 CDT 20:54 CDT
Crépuscule astronomique 04:51 CDT 21:32 CDT
Lune 14:39 CDT Pas de coucher de lune
Durée de lumière visible 14h 12m
Longueur du jour
13h 11m
Tomorrow will be 3m 1s shorter.
Lune montante, 50% of the Moon is Illuminated
Aujourd'hui
Lune montante
Sep 8
Pleine lune
Sep 15
Dernier quartier
Sep 24
Nouveau
Oct 1
Premier quartier

Extrêmes aujourd'hui

State Highs State Lows

Community

WunderPhotos

Upload Photos

1,749,621 Photos téléchargées !

WunderBlogs® & News

By Dr. Jeff Masters
Director of Meteorology, Weather Underground
By Kari Strenfel
Meteorologist, Weather Underground
By Christopher C. Burt
Weather Historian, Weather Underground
September 2, 2014
September 2, 2014
September 2, 2014

Nearby

Qualité de l'air

  Qualité de l'air Indice de la qualité de l'air Polluant
Hier Bon
OZONE
Hier Bon
PM2.5
Actuel Bon
PM2.5
Actuel Bon
OZONE
mardi Bon
OZONE
mardi Bon
PM2.5
mercredi Bon
OZONE
mercredi Bon
PM2.5
jeudi Bon
PM2.5
jeudi Bon
OZONE
vendredi Bon
OZONE
vendredi Bon
PM2.5

Épaisseur de neige

Station Depth Altitude
Pas de nouvelles chutes de neige

Activité sismique

Ville Distance Mag. Time & Date
No recent earthquake activity has been reported nearby.
Minimum magnitude displayed is 2.5.

Températures des eaux côtières

Lieu Température
Aucun rapport de station

Stations météo à proximité